createdAt,value
2018-12-27T00:00:11.040Z,96029.30
2018-12-27T00:02:39.662Z,96023.15
2018-12-27T00:05:08.232Z,96033.16
2018-12-27T00:07:36.788Z,96028.38
2018-12-27T00:10:05.808Z,96034.20
2018-12-27T00:12:34.356Z,96033.23
2018-12-27T00:15:03.041Z,96039.05
2018-12-27T00:17:31.592Z,96039.55
2018-12-27T00:20:00.188Z,96037.88
2018-12-27T00:22:28.743Z,96038.01
2018-12-27T00:24:57.563Z,96043.80
2018-12-27T00:27:26.121Z,96032.02
2018-12-27T00:29:54.698Z,96032.45
2018-12-27T00:32:23.544Z,96026.30
2018-12-27T00:34:52.374Z,96024.81
2018-12-27T00:37:21.190Z,96019.77
2018-12-27T00:39:50.274Z,96020.84
2018-12-27T00:42:19.085Z,96021.44
2018-12-27T00:44:47.903Z,96014.15
2018-12-27T00:47:16.944Z,96018.67
2018-12-27T00:49:45.795Z,96014.80
2018-12-27T00:52:15.464Z,96013.75
2018-12-27T00:54:44.287Z,96007.25
2018-12-27T00:57:13.119Z,96007.03
2018-12-27T00:59:41.956Z,96001.81
2018-12-27T01:02:10.803Z,96001.67
2018-12-27T01:04:39.680Z,96005.33
2018-12-27T01:07:08.493Z,96004.09
2018-12-27T01:09:37.313Z,96008.05
2018-12-27T01:12:06.118Z,95999.64
2018-12-27T01:14:34.943Z,96001.41
2018-12-27T01:17:03.746Z,95994.33
2018-12-27T01:19:32.554Z,96002.39
2018-12-27T01:22:01.351Z,96000.08
2018-12-27T01:24:30.166Z,95989.62
2018-12-27T01:26:58.967Z,95991.58
2018-12-27T01:29:27.771Z,95989.06
2018-12-27T01:31:56.579Z,95982.72
2018-12-27T01:34:25.400Z,95974.05
2018-12-27T01:36:54.228Z,95978.25
2018-12-27T01:39:23.042Z,95967.01
2018-12-27T01:41:51.867Z,95968.73
2018-12-27T01:44:20.686Z,95964.78
2018-12-27T01:46:49.555Z,95965.73
2018-12-27T01:49:18.368Z,95968.79
2018-12-27T01:51:47.179Z,95963.11
2018-12-27T01:54:15.995Z,95959.38
2018-12-27T01:56:44.802Z,95965.00
2018-12-27T01:59:13.611Z,95956.89
2018-12-27T02:01:42.419Z,95953.88
2018-12-27T02:04:11.225Z,95962.43
2018-12-27T02:06:40.305Z,95959.14
2018-12-27T02:09:09.352Z,95956.28
2018-12-27T02:11:38.172Z,95960.48
2018-12-27T02:14:07.071Z,95956.09
2018-12-27T02:16:36.352Z,95958.03
2018-12-27T02:19:05.159Z,95963.69
2018-12-27T02:21:34.211Z,95949.13
2018-12-27T02:24:03.034Z,95956.25
2018-12-27T02:26:31.847Z,95950.19
2018-12-27T02:29:00.654Z,95948.72
2018-12-27T02:31:29.686Z,95944.23
2018-12-27T02:33:58.498Z,95945.59
2018-12-27T02:36:27.299Z,95946.33
2018-12-27T02:38:56.139Z,95938.79
2018-12-27T02:41:24.956Z,95933.65
2018-12-27T02:43:53.787Z,95935.95
2018-12-27T02:46:22.846Z,95935.54
2018-12-27T02:48:51.676Z,95926.05
2018-12-27T02:51:20.493Z,95930.86
2018-12-27T02:53:49.302Z,95928.14
2018-12-27T02:56:18.111Z,95920.67
2018-12-27T02:58:46.932Z,95922.48
2018-12-27T03:01:15.746Z,95915.81
2018-12-27T03:03:44.570Z,95914.03
2018-12-27T03:06:13.378Z,95907.97
2018-12-27T03:08:42.198Z,95907.38
2018-12-27T03:11:11.052Z,95902.00
2018-12-27T03:13:39.821Z,95905.36
2018-12-27T03:16:08.635Z,95901.45
2018-12-27T03:18:37.437Z,95899.02
2018-12-27T03:21:06.247Z,95897.57
2018-12-27T03:23:35.167Z,95893.44
2018-12-27T03:26:03.969Z,95891.92
2018-12-27T03:28:32.768Z,95885.49
2018-12-27T03:31:01.595Z,95882.85
2018-12-27T03:33:30.405Z,95877.83
2018-12-27T03:35:59.275Z,95876.92
2018-12-27T03:38:28.020Z,95872.41
2018-12-27T03:40:57.823Z,95877.59
2018-12-27T03:43:26.921Z,95876.39
2018-12-27T03:45:55.756Z,95868.70
2018-12-27T03:48:24.565Z,95869.63
2018-12-27T03:50:53.390Z,95863.77
2018-12-27T03:53:22.209Z,95864.55
2018-12-27T03:55:51.023Z,95864.37
2018-12-27T03:58:19.848Z,95855.65
2018-12-27T04:00:48.904Z,95857.88
2018-12-27T04:03:17.726Z,95849.77
2018-12-27T04:05:46.537Z,95849.61
2018-12-27T04:08:15.352Z,95855.65
2018-12-27T04:10:44.422Z,95848.66
2018-12-27T04:13:13.234Z,95858.94
2018-12-27T04:15:41.801Z,95850.47
2018-12-27T04:18:10.359Z,95855.10
2018-12-27T04:20:38.916Z,95856.71
2018-12-27T04:23:07.470Z,95854.53
2018-12-27T04:25:36.427Z,95855.54
2018-12-27T04:28:04.986Z,95854.66
2018-12-27T04:30:34.033Z,95853.52
2018-12-27T04:33:04.051Z,95847.36
2018-12-27T04:35:32.685Z,95851.89
2018-12-27T04:38:01.492Z,95850.80
2018-12-27T04:40:30.056Z,95854.70
2018-12-27T04:42:58.676Z,95851.59
2018-12-27T04:45:27.502Z,95850.11
2018-12-27T04:47:56.059Z,95852.05
2018-12-27T04:50:24.610Z,95845.06
2018-12-27T04:52:53.176Z,95847.08
2018-12-27T04:55:21.733Z,95846.28
2018-12-27T04:57:50.292Z,95849.20
2018-12-27T05:00:18.856Z,95852.39
2018-12-27T05:02:47.412Z,95856.81
2018-12-27T05:05:16.002Z,95844.81
2018-12-27T05:07:44.551Z,95854.30
2018-12-27T05:10:13.346Z,95855.49
2018-12-27T05:12:41.915Z,95855.52
2018-12-27T05:15:10.466Z,95856.94
2018-12-27T05:17:39.257Z,95859.39
2018-12-27T05:20:07.888Z,95852.02
2018-12-27T05:22:36.447Z,95848.30
2018-12-27T05:25:05.084Z,95853.22
2018-12-27T05:27:33.665Z,95857.19
2018-12-27T05:30:02.219Z,95852.52
2018-12-27T05:32:31.010Z,95858.55
2018-12-27T05:34:59.574Z,95861.25
2018-12-27T05:37:28.117Z,95860.09
2018-12-27T05:39:56.682Z,95861.13
2018-12-27T05:42:25.247Z,95868.07
2018-12-27T05:44:53.811Z,95873.83
2018-12-27T05:47:22.603Z,95865.41
2018-12-27T05:49:51.169Z,95873.68
2018-12-27T05:52:19.719Z,95875.52
2018-12-27T05:54:48.288Z,95871.78
2018-12-27T05:57:16.848Z,95873.55
2018-12-27T05:59:45.429Z,95864.02
2018-12-27T06:02:13.978Z,95865.81
2018-12-27T06:04:42.543Z,95866.09
2018-12-27T06:07:11.097Z,95864.55
2018-12-27T06:09:39.699Z,95869.18
2018-12-27T06:12:08.255Z,95866.97
2018-12-27T06:14:36.834Z,95869.33
2018-12-27T06:17:05.488Z,95876.41
2018-12-27T06:19:34.052Z,95871.05
2018-12-27T06:22:02.630Z,95869.99
2018-12-27T06:24:31.182Z,95879.95
2018-12-27T06:26:59.750Z,95874.38
2018-12-27T06:29:28.533Z,95871.94
2018-12-27T06:31:57.097Z,95862.88
2018-12-27T06:34:25.656Z,95871.44
2018-12-27T06:36:54.241Z,95870.18
2018-12-27T06:39:22.806Z,95877.31
2018-12-27T06:41:51.643Z,95876.95
2018-12-27T06:44:20.202Z,95874.80
2018-12-27T06:46:48.829Z,95876.05
2018-12-27T06:49:17.412Z,95884.91
2018-12-27T06:51:46.226Z,95881.56
2018-12-27T06:54:14.815Z,95884.13
2018-12-27T06:56:43.380Z,95883.86
2018-12-27T06:59:11.941Z,95878.22
2018-12-27T07:01:40.518Z,95878.15
2018-12-27T07:04:09.099Z,95870.89
2018-12-27T07:06:37.671Z,95870.19
2018-12-27T07:09:07.768Z,95875.67
2018-12-27T07:11:36.335Z,95869.31
2018-12-27T07:14:04.987Z,95875.01
2018-12-27T07:16:33.776Z,95876.11
2018-12-27T07:19:02.351Z,95877.61
2018-12-27T07:21:30.927Z,95872.86
2018-12-27T07:23:59.503Z,95876.03
2018-12-27T07:26:28.070Z,95876.33
2018-12-27T07:28:56.683Z,95875.84
2018-12-27T07:31:25.253Z,95881.17
2018-12-27T07:33:53.842Z,95878.31
2018-12-27T07:36:22.406Z,95877.16
2018-12-27T07:38:51.235Z,95881.41
2018-12-27T07:41:20.283Z,95885.94
2018-12-27T07:43:48.841Z,95882.25
2018-12-27T07:46:17.426Z,95882.63
2018-12-27T07:48:46.225Z,95888.97
2018-12-27T07:51:14.787Z,95884.87
2018-12-27T07:53:43.338Z,95882.84
2018-12-27T07:56:11.902Z,95880.17
2018-12-27T07:58:41.004Z,95879.79
2018-12-27T08:01:09.562Z,95881.80
2018-12-27T08:03:38.126Z,95876.13
2018-12-27T08:06:06.687Z,95878.45
2018-12-27T08:08:35.471Z,95882.47
2018-12-27T08:11:04.040Z,95880.83
2018-12-27T08:13:32.587Z,95884.85
2018-12-27T08:16:01.143Z,95881.73
2018-12-27T08:18:34.815Z,95882.52
2018-12-27T08:21:03.373Z,95878.69
2018-12-27T08:23:31.938Z,95886.36
2018-12-27T08:26:00.508Z,95884.86
2018-12-27T08:28:29.065Z,95875.91
2018-12-27T08:30:57.648Z,95876.05
2018-12-27T08:33:26.272Z,95879.41
2018-12-27T08:35:54.835Z,95875.73
2018-12-27T08:38:23.407Z,95877.28
2018-12-27T08:40:51.993Z,95876.69
2018-12-27T08:43:20.547Z,95877.16
2018-12-27T08:45:49.112Z,95877.88
2018-12-27T08:48:17.689Z,95879.75
2018-12-27T08:50:46.249Z,95874.41
2018-12-27T08:53:14.834Z,95872.48
2018-12-27T08:55:43.393Z,95878.13
2018-12-27T08:58:11.947Z,95878.17
2018-12-27T09:00:40.518Z,95875.41
2018-12-27T09:03:09.081Z,95872.44
2018-12-27T09:05:37.668Z,95870.91
2018-12-27T09:08:06.473Z,95873.56
2018-12-27T09:10:35.041Z,95868.43
2018-12-27T09:13:03.789Z,95868.39
2018-12-27T09:15:32.431Z,95864.57
2018-12-27T09:18:01.066Z,95858.17
2018-12-27T09:20:29.914Z,95860.72
2018-12-27T09:22:58.944Z,95860.94
2018-12-27T09:25:27.782Z,95857.76
2018-12-27T09:27:56.356Z,95855.69
2018-12-27T09:30:24.948Z,95859.77
2018-12-27T09:32:53.522Z,95855.78
2018-12-27T09:35:26.256Z,95854.71
2018-12-27T09:37:52.422Z,95845.17
2018-12-27T09:40:21.249Z,95850.53
2018-12-27T09:42:49.847Z,95845.73
2018-12-27T09:45:18.404Z,95853.45
2018-12-27T09:47:46.983Z,95846.15
2018-12-27T09:50:15.797Z,95846.15
2018-12-27T09:52:44.396Z,95846.39
2018-12-27T09:55:12.980Z,95860.41
2018-12-27T09:57:41.554Z,95846.84
2018-12-27T10:00:10.206Z,95846.84
2018-12-27T10:02:38.791Z,95848.98
2018-12-27T10:05:07.365Z,95846.05
2018-12-27T10:07:35.947Z,95840.70
2018-12-27T10:10:04.736Z,95841.19
2018-12-27T10:12:33.307Z,95839.20
2018-12-27T10:15:01.910Z,95830.36
2018-12-27T10:17:30.450Z,95834.20
2018-12-27T10:19:59.030Z,95829.11
2018-12-27T10:22:27.601Z,95834.63
2018-12-27T10:24:56.198Z,95834.63
2018-12-27T10:27:24.775Z,95824.21
2018-12-27T10:29:53.490Z,95817.55
2018-12-27T10:32:22.681Z,95822.50
2018-12-27T10:34:51.248Z,95814.21
2018-12-27T10:37:19.803Z,95812.31
2018-12-27T10:39:48.482Z,95816.54
2018-12-27T10:42:18.021Z,95812.31
2018-12-27T10:44:46.594Z,95808.02
2018-12-27T10:47:15.171Z,95799.54
2018-12-27T10:49:43.746Z,95797.95
2018-12-27T10:52:12.322Z,95790.08
2018-12-27T10:54:40.923Z,95784.99
2018-12-27T10:57:09.546Z,95780.72
2018-12-27T10:59:38.133Z,95781.16
2018-12-27T11:02:06.698Z,95770.02
2018-12-27T11:04:35.301Z,95767.30
2018-12-27T11:07:03.875Z,95768.13
2018-12-27T11:09:32.436Z,95764.96
2018-12-27T11:12:01.018Z,95759.97
2018-12-27T11:14:29.596Z,95760.47
2018-12-27T11:16:58.249Z,95756.37
2018-12-27T11:19:26.890Z,95754.46
2018-12-27T11:21:55.481Z,95749.11
2018-12-27T11:24:24.050Z,95752.46
2018-12-27T11:26:52.632Z,95742.67
2018-12-27T11:29:21.216Z,95737.25
2018-12-27T11:31:50.056Z,95740.71
2018-12-27T11:34:18.610Z,95732.48
2018-12-27T11:36:47.210Z,95737.07
2018-12-27T11:39:15.772Z,95730.31
2018-12-27T11:41:44.413Z,95726.98
2018-12-27T11:44:12.987Z,95722.61
2018-12-27T11:46:41.587Z,95717.05
2018-12-27T11:49:10.145Z,95716.00
2018-12-27T11:51:38.711Z,95708.68
2018-12-27T11:54:07.280Z,95699.92
2018-12-27T11:56:35.859Z,95698.22
2018-12-27T11:59:04.431Z,95696.39
2018-12-27T12:01:33.020Z,95700.66
2018-12-27T12:04:01.591Z,95696.19
2018-12-27T12:06:30.192Z,95693.63
2018-12-27T12:08:58.773Z,95698.69
2018-12-27T12:11:27.360Z,95693.44
2018-12-27T12:13:55.940Z,95693.46
2018-12-27T12:16:24.541Z,95693.01
2018-12-27T12:18:53.119Z,95690.77
2018-12-27T12:21:21.684Z,95690.02
2018-12-27T12:23:50.260Z,95691.05
2018-12-27T12:26:19.072Z,95684.35
2018-12-27T12:28:47.729Z,95684.53
2018-12-27T12:31:16.364Z,95679.55
2018-12-27T12:33:44.934Z,95679.95
2018-12-27T12:36:13.569Z,95681.20
2018-12-27T12:38:42.239Z,95687.19
2018-12-27T12:41:10.810Z,95686.06
2018-12-27T12:43:39.379Z,95686.42
2018-12-27T12:46:07.951Z,95692.59
2018-12-27T12:48:36.523Z,95693.25
2018-12-27T12:51:05.228Z,95695.41
2018-12-27T12:53:33.774Z,95705.80
2018-12-27T12:56:02.378Z,95709.70
2018-12-27T12:58:31.004Z,95710.31
2018-12-27T13:01:00.569Z,95712.15
2018-12-27T13:03:29.337Z,95709.72
2018-12-27T13:05:57.933Z,95718.05
2018-12-27T13:08:26.471Z,95715.55
2018-12-27T13:10:55.060Z,95714.91
2018-12-27T13:13:23.673Z,95723.17
2018-12-27T13:15:52.382Z,95718.40
2018-12-27T13:18:20.990Z,95718.12
2018-12-27T13:20:49.592Z,95723.14
2018-12-27T13:23:18.280Z,95721.26
2018-12-27T13:25:46.978Z,95718.00
2018-12-27T13:28:15.536Z,95718.23
2018-12-27T13:30:44.104Z,95716.83
2018-12-27T13:33:12.683Z,95716.45
2018-12-27T13:35:41.470Z,95715.19
2018-12-27T13:38:10.060Z,95718.95
2018-12-27T13:40:38.629Z,95717.20
2018-12-27T13:43:08.481Z,95714.83
2018-12-27T13:45:37.035Z,95714.87
2018-12-27T13:48:05.916Z,95712.88
2018-12-27T13:50:34.737Z,95715.75
2018-12-27T13:53:03.299Z,95707.17
2018-12-27T13:55:31.933Z,95715.84
2018-12-27T13:58:00.519Z,95709.42
2018-12-27T14:00:29.318Z,95714.81
2018-12-27T14:02:58.136Z,95718.56
2018-12-27T14:05:26.717Z,95720.11
2018-12-27T14:07:55.263Z,95724.20
2018-12-27T14:10:24.069Z,95721.68
2018-12-27T14:12:52.623Z,95724.95
2018-12-27T14:15:21.447Z,95726.97
2018-12-27T14:17:50.016Z,95728.75
2018-12-27T14:20:18.598Z,95722.53
2018-12-27T14:22:47.160Z,95720.41
2018-12-27T14:25:15.741Z,95718.92
2018-12-27T14:27:44.325Z,95720.47
2018-12-27T14:30:12.921Z,95719.91
2018-12-27T14:32:41.495Z,95724.36
2018-12-27T14:35:10.080Z,95722.84
2018-12-27T14:37:38.641Z,95721.55
2018-12-27T14:40:08.833Z,95721.55
2018-12-27T14:42:37.485Z,95724.22
2018-12-27T14:45:06.381Z,95731.86
2018-12-27T14:47:35.042Z,95734.22
2018-12-27T14:50:03.917Z,95734.16
2018-12-27T14:52:32.631Z,95734.16
2018-12-27T14:55:02.223Z,95743.53
2018-12-27T14:57:30.799Z,95743.53
2018-12-27T14:59:59.376Z,95732.27
2018-12-27T15:02:28.184Z,95737.81
2018-12-27T15:04:56.759Z,95734.24
2018-12-27T15:07:25.355Z,95737.03
2018-12-27T15:09:53.936Z,95740.89
2018-12-27T15:12:22.770Z,95740.89
2018-12-27T15:14:51.329Z,95728.73
2018-12-27T15:17:19.941Z,95737.34
2018-12-27T15:19:48.509Z,95734.81
2018-12-27T15:22:17.109Z,95732.70
2018-12-27T15:24:45.703Z,95734.14
2018-12-27T15:27:14.270Z,95732.37
2018-12-27T15:29:42.837Z,95726.77
2018-12-27T15:32:11.630Z,95722.48
2018-12-27T15:34:40.204Z,95717.66
2018-12-27T15:37:08.916Z,95711.54
2018-12-27T15:39:37.538Z,95708.73
2018-12-27T15:42:06.114Z,95707.53
2018-12-27T15:44:34.713Z,95700.86
2018-12-27T15:47:03.476Z,95701.86
2018-12-27T15:49:32.045Z,95701.38
2018-12-27T15:52:00.622Z,95703.50
2018-12-27T15:54:29.166Z,95700.47
2018-12-27T15:56:58.644Z,95703.56
2018-12-27T15:59:27.577Z,95697.77
2018-12-27T16:01:56.139Z,95702.67
2018-12-27T16:04:24.729Z,95704.23
2018-12-27T16:06:53.304Z,95711.55
2018-12-27T16:09:21.871Z,95719.17
2018-12-27T16:11:50.475Z,95715.38
2018-12-27T16:14:19.057Z,95715.41
2018-12-27T16:16:47.624Z,95713.42
2018-12-27T16:19:16.191Z,95706.83
2018-12-27T16:21:44.779Z,95703.63
2018-12-27T16:24:13.352Z,95706.22
2018-12-27T16:26:41.934Z,95703.73
2018-12-27T16:29:10.523Z,95700.86
2018-12-27T16:31:39.170Z,95709.11
2018-12-27T16:34:07.745Z,95707.48
2018-12-27T16:36:36.311Z,95702.58
2018-12-27T16:39:06.865Z,95698.28
2018-12-27T16:41:35.423Z,95701.02
2018-12-27T16:44:04.090Z,95698.07
2018-12-27T16:46:32.658Z,95711.88
2018-12-27T16:49:01.252Z,95716.66
2018-12-27T16:51:30.089Z,95718.81
2018-12-27T16:53:58.690Z,95708.65
2018-12-27T16:56:27.285Z,95700.38
2018-12-27T16:58:55.875Z,95701.00
2018-12-27T17:01:24.462Z,95699.20
2018-12-27T17:03:53.090Z,95695.11
2018-12-27T17:06:21.675Z,95687.30
2018-12-27T17:08:50.257Z,95679.30
2018-12-27T17:11:18.855Z,95675.42
2018-12-27T17:13:47.641Z,95668.75
2018-12-27T17:16:16.311Z,95677.98
2018-12-27T17:18:45.112Z,95685.38
2018-12-27T17:21:13.702Z,95684.70
2018-12-27T17:23:42.257Z,95683.08
2018-12-27T17:26:10.875Z,95685.30
2018-12-27T17:28:39.439Z,95688.09
2018-12-27T17:31:08.038Z,95682.83
2018-12-27T17:33:36.630Z,95687.77
2018-12-27T17:36:05.431Z,95692.70
2018-12-27T17:38:33.995Z,95693.91
2018-12-27T17:41:02.563Z,95697.31
2018-12-27T17:43:31.132Z,95702.98
2018-12-27T17:45:59.696Z,95701.99
2018-12-27T17:48:28.259Z,95706.26
2018-12-27T17:50:58.813Z,95713.23
2018-12-27T17:53:27.388Z,95706.84
2018-12-27T17:55:56.951Z,95700.99
2018-12-27T17:58:25.521Z,95700.82
2018-12-27T18:00:54.102Z,95702.83
2018-12-27T18:03:22.942Z,95708.87
2018-12-27T18:05:51.490Z,95708.10
2018-12-27T18:08:20.078Z,95705.94
2018-12-27T18:10:48.824Z,95698.69
2018-12-27T18:13:17.631Z,95701.34
2018-12-27T18:15:46.191Z,95695.73
2018-12-27T18:18:14.854Z,95701.13
2018-12-27T18:20:43.595Z,95698.88
2018-12-27T18:23:12.237Z,95699.29
2018-12-27T18:25:41.683Z,95705.03
2018-12-27T18:28:10.263Z,95707.22
2018-12-27T18:30:38.845Z,95704.88
2018-12-27T18:33:07.400Z,95711.63
2018-12-27T18:35:35.981Z,95717.65
2018-12-27T18:38:04.810Z,95706.91
2018-12-27T18:40:33.424Z,95704.16
2018-12-27T18:43:02.049Z,95712.69
2018-12-27T18:45:30.617Z,95724.25
2018-12-27T18:47:59.196Z,95730.16
2018-12-27T18:50:27.787Z,95733.59
2018-12-27T18:52:56.365Z,95732.95
2018-12-27T18:55:24.969Z,95737.30
2018-12-27T18:57:53.543Z,95738.63
2018-12-27T19:00:22.139Z,95731.00
2018-12-27T19:02:50.847Z,95738.66
2018-12-27T19:05:19.461Z,95738.84
2018-12-27T19:07:48.059Z,95749.11
2018-12-27T19:10:16.625Z,95750.46
2018-12-27T19:13:16.441Z,95746.88
2018-12-27T19:16:00.572Z,95748.87
2018-12-27T19:18:41.577Z,95749.55
2018-12-27T19:21:23.110Z,95760.73
2018-12-27T19:23:51.718Z,95757.19
2018-12-27T19:26:20.335Z,95768.03
2018-12-27T19:28:49.013Z,95756.45
2018-12-27T19:31:17.598Z,95745.80
2018-12-27T19:33:46.443Z,95743.34
2018-12-27T19:36:15.042Z,95731.78
2018-12-27T19:38:43.613Z,95728.55
2018-12-27T19:41:12.187Z,95713.12
2018-12-27T19:43:40.740Z,95716.45
2018-12-27T19:46:09.343Z,95707.41
2018-12-27T19:48:37.905Z,95714.12
2018-12-27T19:51:06.502Z,95711.70
2018-12-27T19:53:35.082Z,95710.86
2018-12-27T19:56:03.649Z,95716.02
2018-12-27T19:58:32.220Z,95716.91
2018-12-27T20:01:00.807Z,95724.78
2018-12-27T20:03:29.388Z,95718.30
2018-12-27T20:05:57.958Z,95725.69
2018-12-27T20:08:26.664Z,95717.72
2018-12-27T20:10:55.236Z,95703.27
2018-12-27T20:13:23.836Z,95698.41
2018-12-27T20:15:52.461Z,95688.11
2018-12-27T20:18:21.086Z,95699.94
2018-12-27T20:20:49.660Z,95694.66
2018-12-27T20:23:18.291Z,95690.97
2018-12-27T20:25:47.091Z,95696.03
2018-12-27T20:28:15.659Z,95689.99
2018-12-27T20:30:44.222Z,95687.90
2018-12-27T20:33:12.820Z,95699.11
2018-12-27T20:35:41.399Z,95697.06
2018-12-27T20:38:10.114Z,95698.06
2018-12-27T20:40:38.734Z,95700.07
2018-12-27T20:43:07.333Z,95703.73
2018-12-27T20:45:35.880Z,95710.13
2018-12-27T20:48:04.449Z,95713.25
2018-12-27T20:50:33.148Z,95704.77
2018-12-27T20:53:01.722Z,95700.20
2018-12-27T20:55:30.269Z,95691.60
2018-12-27T20:57:59.074Z,95698.44
2018-12-27T21:00:28.726Z,95695.66
2018-12-27T21:02:57.321Z,95680.41
2018-12-27T21:05:25.878Z,95679.30
2018-12-27T21:07:54.484Z,95690.56
2018-12-27T21:10:23.221Z,95693.23
2018-12-27T21:12:51.804Z,95697.13
2018-12-27T21:15:20.594Z,95702.36
2018-12-27T21:17:49.163Z,95697.86
2018-12-27T21:20:17.759Z,95698.44
2018-12-27T21:22:46.313Z,95695.55
2018-12-27T21:25:14.901Z,95699.42
2018-12-27T21:27:43.440Z,95702.56
2018-12-27T21:30:12.043Z,95701.09
2018-12-27T21:32:40.955Z,95707.80
2018-12-27T21:35:09.601Z,95701.77
2018-12-27T21:37:38.186Z,95700.08
2018-12-27T21:40:06.895Z,95698.72
2018-12-27T21:42:35.529Z,95704.79
2018-12-27T21:45:04.355Z,95704.63
2018-12-27T21:47:32.937Z,95707.28
2018-12-27T21:50:01.517Z,95702.98
2018-12-27T21:52:30.098Z,95701.97
2018-12-27T21:54:58.652Z,95701.91
2018-12-27T21:57:27.269Z,95699.11
2018-12-27T21:59:55.815Z,95692.66
2018-12-27T22:02:24.386Z,95694.14
2018-12-27T22:04:52.938Z,95686.13
2018-12-27T22:07:21.499Z,95685.64
2018-12-27T22:09:50.082Z,95685.84
2018-12-27T22:12:18.639Z,95681.59
2018-12-27T22:14:47.207Z,95686.92
2018-12-27T22:17:15.774Z,95689.86
2018-12-27T22:19:44.584Z,95694.87
2018-12-27T22:22:13.134Z,95698.96
2018-12-27T22:24:41.945Z,95701.82
2018-12-27T22:27:10.544Z,95708.14
2018-12-27T22:29:39.167Z,95710.63
2018-12-27T22:32:08.038Z,95699.42
2018-12-27T22:34:36.629Z,95699.41
2018-12-27T22:37:05.211Z,95702.25
2018-12-27T22:39:33.776Z,95703.84
2018-12-27T22:42:02.344Z,95697.13
2018-12-27T22:44:30.905Z,95698.45
2018-12-27T22:46:59.506Z,95692.30
2018-12-27T22:49:28.017Z,95696.25
2018-12-27T22:51:56.577Z,95702.84
2018-12-27T22:54:25.382Z,95709.28
2018-12-27T22:56:53.950Z,95710.25
2018-12-27T22:59:22.534Z,95712.09
2018-12-27T23:01:51.093Z,95706.11
2018-12-27T23:04:19.774Z,95702.94
2018-12-27T23:06:48.360Z,95692.03
2018-12-27T23:09:16.977Z,95691.20
2018-12-27T23:11:46.018Z,95689.25
2018-12-27T23:14:14.592Z,95683.30
2018-12-27T23:16:43.179Z,95697.21
2018-12-27T23:19:11.739Z,95689.03
2018-12-27T23:21:40.361Z,95689.77
2018-12-27T23:24:08.917Z,95680.77
2018-12-27T23:26:37.509Z,95675.60
2018-12-27T23:29:06.068Z,95685.09
2018-12-27T23:31:34.684Z,95678.63
2018-12-27T23:34:03.259Z,95688.40
2018-12-27T23:36:31.912Z,95684.59
2018-12-27T23:39:00.469Z,95681.88
2018-12-27T23:41:29.042Z,95676.00
2018-12-27T23:43:57.623Z,95671.34
2018-12-27T23:46:26.491Z,95665.36
2018-12-27T23:48:55.061Z,95662.63
2018-12-27T23:51:23.620Z,95666.77
2018-12-27T23:53:52.191Z,95662.30
2018-12-27T23:56:20.755Z,95663.73
2018-12-27T23:58:49.351Z,95656.48
